sensor_id;sensor_type;location;lat;lon;timestamp;temperature;humidity
49124;DHT22;48506;48.202;16.274;2023-04-01T00:02:08;12.00;87.60
49124;DHT22;48506;48.202;16.274;2023-04-01T00:04:34;12.00;87.70
49124;DHT22;48506;48.202;16.274;2023-04-01T00:07:00;12.00;87.60
49124;DHT22;48506;48.202;16.274;2023-04-01T00:09:27;12.00;88.00
49124;DHT22;48506;48.202;16.274;2023-04-01T00:11:53;12.00;87.90
49124;DHT22;48506;48.202;16.274;2023-04-01T00:14:21;11.90;87.70
49124;DHT22;48506;48.202;16.274;2023-04-01T00:16:47;12.00;87.50
49124;DHT22;48506;48.202;16.274;2023-04-01T00:19:13;12.00;87.60
49124;DHT22;48506;48.202;16.274;2023-04-01T00:21:38;12.00;87.40
49124;DHT22;48506;48.202;16.274;2023-04-01T00:24:05;11.90;87.30
49124;DHT22;48506;48.202;16.274;2023-04-01T00:26:31;11.90;87.20
49124;DHT22;48506;48.202;16.274;2023-04-01T00:28:59;12.00;87.20
49124;DHT22;48506;48.202;16.274;2023-04-01T00:31:26;12.00;86.90
49124;DHT22;48506;48.202;16.274;2023-04-01T00:33:52;12.00;87.10
49124;DHT22;48506;48.202;16.274;2023-04-01T00:36:20;11.90;87.40
49124;DHT22;48506;48.202;16.274;2023-04-01T00:38:47;11.90;87.20
49124;DHT22;48506;48.202;16.274;2023-04-01T00:41:14;11.90;87.20
49124;DHT22;48506;48.202;16.274;2023-04-01T00:43:45;11.90;87.20
49124;DHT22;48506;48.202;16.274;2023-04-01T00:46:11;11.90;87.30
49124;DHT22;48506;48.202;16.274;2023-04-01T00:48:58;11.90;87.40
49124;DHT22;48506;48.202;16.274;2023-04-01T00:51:27;11.90;87.30
49124;DHT22;48506;48.202;16.274;2023-04-01T00:53:56;11.80;87.30
49124;DHT22;48506;48.202;16.274;2023-04-01T00:56:32;11.90;87.20
49124;DHT22;48506;48.202;16.274;2023-04-01T00:59:15;11.90;87.20
49124;DHT22;48506;48.202;16.274;2023-04-01T01:01:42;11.90;87.20
49124;DHT22;48506;48.202;16.274;2023-04-01T01:07:00;11.90;87.20
49124;DHT22;48506;48.202;16.274;2023-04-01T01:09:46;11.80;87.20
49124;DHT22;48506;48.202;16.274;2023-04-01T01:18:21;11.80;87.50
49124;DHT22;48506;48.202;16.274;2023-04-01T01:24:17;11.80;87.00
49124;DHT22;48506;48.202;16.274;2023-04-01T01:26:51;11.80;87.10
49124;DHT22;48506;48.202;16.274;2023-04-01T01:32:28;11.70;87.30
49124;DHT22;48506;48.202;16.274;2023-04-01T01:35:28;11.70;87.20
49124;DHT22;48506;48.202;16.274;2023-04-01T01:38:17;11.80;87.20
49124;DHT22;48506;48.202;16.274;2023-04-01T01:40:47;11.70;87.50
49124;DHT22;48506;48.202;16.274;2023-04-01T01:43:17;11.70;87.50
49124;DHT22;48506;48.202;16.274;2023-04-01T01:45:51;11.70;87.60
49124;DHT22;48506;48.202;16.274;2023-04-01T01:48:18;11.70;87.50
49124;DHT22;48506;48.202;16.274;2023-04-01T01:50:46;11.70;88.10
49124;DHT22;48506;48.202;16.274;2023-04-01T01:53:14;11.70;88.90
49124;DHT22;48506;48.202;16.274;2023-04-01T01:55:43;11.70;88.60
49124;DHT22;48506;48.202;16.274;2023-04-01T01:58:20;11.60;89.20
49124;DHT22;48506;48.202;16.274;2023-04-01T02:00:51;11.60;89.50
49124;DHT22;48506;48.202;16.274;2023-04-01T02:03:21;11.60;89.70
49124;DHT22;48506;48.202;16.274;2023-04-01T02:05:51;11.50;89.80
49124;DHT22;48506;48.202;16.274;2023-04-01T02:08:28;11.50;89.60
49124;DHT22;48506;48.202;16.274;2023-04-01T02:11:02;11.50;89.70
49124;DHT22;48506;48.202;16.274;2023-04-01T02:13:52;11.50;89.70
49124;DHT22;48506;48.202;16.274;2023-04-01T02:16:49;11.50;89.50
49124;DHT22;48506;48.202;16.274;2023-04-01T02:19:18;11.50;89.50
49124;DHT22;48506;48.202;16.274;2023-04-01T02:21:54;11.50;89.30
49124;DHT22;48506;48.202;16.274;2023-04-01T02:24:22;11.50;89.40
49124;DHT22;48506;48.202;16.274;2023-04-01T02:26:51;11.40;89.40
49124;DHT22;48506;48.202;16.274;2023-04-01T02:29:22;11.50;89.60
49124;DHT22;48506;48.202;16.274;2023-04-01T02:31:50;11.40;89.40
49124;DHT22;48506;48.202;16.274;2023-04-01T02:34:17;11.40;89.50
49124;DHT22;48506;48.202;16.274;2023-04-01T02:36:43;11.40;89.50
49124;DHT22;48506;48.202;16.274;2023-04-01T02:39:09;11.40;89.20
49124;DHT22;48506;48.202;16.274;2023-04-01T02:41:43;11.40;89.50
49124;DHT22;48506;48.202;16.274;2023-04-01T02:44:11;11.40;89.50
49124;DHT22;48506;48.202;16.274;2023-04-01T02:46:37;11.40;89.40
49124;DHT22;48506;48.202;16.274;2023-04-01T02:49:04;11.40;89.40
49124;DHT22;48506;48.202;16.274;2023-04-01T02:51:30;11.40;89.40
49124;DHT22;48506;48.202;16.274;2023-04-01T02:53:56;11.30;89.50
49124;DHT22;48506;48.202;16.274;2023-04-01T02:56:23;11.30;89.30
49124;DHT22;48506;48.202;16.274;2023-04-01T02:58:49;11.30;89.40
49124;DHT22;48506;48.202;16.274;2023-04-01T03:01:16;11.30;90.00
49124;DHT22;48506;48.202;16.274;2023-04-01T03:03:42;11.30;90.10
49124;DHT22;48506;48.202;16.274;2023-04-01T03:06:13;11.40;90.20
49124;DHT22;48506;48.202;16.274;2023-04-01T03:08:40;11.40;90.30
49124;DHT22;48506;48.202;16.274;2023-04-01T03:11:06;11.30;90.10
49124;DHT22;48506;48.202;16.274;2023-04-01T03:13:32;11.30;90.10
49124;DHT22;48506;48.202;16.274;2023-04-01T03:15:58;11.30;90.20
49124;DHT22;48506;48.202;16.274;2023-04-01T03:18:24;11.30;90.30
49124;DHT22;48506;48.202;16.274;2023-04-01T03:20:50;11.30;90.30
49124;DHT22;48506;48.202;16.274;2023-04-01T03:23:16;11.20;90.30
49124;DHT22;48506;48.202;16.274;2023-04-01T03:25:45;11.20;90.40
49124;DHT22;48506;48.202;16.274;2023-04-01T03:28:11;11.10;90.50
49124;DHT22;48506;48.202;16.274;2023-04-01T03:30:38;11.10;90.50
49124;DHT22;48506;48.202;16.274;2023-04-01T03:33:04;11.10;90.50
49124;DHT22;48506;48.202;16.274;2023-04-01T03:35:30;11.10;90.50
49124;DHT22;48506;48.202;16.274;2023-04-01T03:37:57;11.10;90.60
49124;DHT22;48506;48.202;16.274;2023-04-01T03:40:23;11.10;90.50
49124;DHT22;48506;48.202;16.274;2023-04-01T03:42:49;11.10;90.50
49124;DHT22;48506;48.202;16.274;2023-04-01T03:45:15;11.10;90.60
49124;DHT22;48506;48.202;16.274;2023-04-01T03:47:41;11.00;90.60
49124;DHT22;48506;48.202;16.274;2023-04-01T03:50:08;11.10;90.60
49124;DHT22;48506;48.202;16.274;2023-04-01T03:52:34;11.00;90.60
49124;DHT22;48506;48.202;16.274;2023-04-01T03:55:01;11.00;90.60
49124;DHT22;48506;48.202;16.274;2023-04-01T03:57:27;11.00;90.70
49124;DHT22;48506;48.202;16.274;2023-04-01T03:59:53;11.00;90.60
49124;DHT22;48506;48.202;16.274;2023-04-01T04:02:19;11.00;90.60
49124;DHT22;48506;48.202;16.274;2023-04-01T04:04:45;11.00;90.50
49124;DHT22;48506;48.202;16.274;2023-04-01T04:07:12;11.00;90.60
49124;DHT22;48506;48.202;16.274;2023-04-01T04:09:38;11.00;90.50
49124;DHT22;48506;48.202;16.274;2023-04-01T04:12:04;11.00;90.40
49124;DHT22;48506;48.202;16.274;2023-04-01T04:14:31;11.00;90.40
49124;DHT22;48506;48.202;16.274;2023-04-01T04:16:57;11.00;90.30
49124;DHT22;48506;48.202;16.274;2023-04-01T04:19:24;11.00;90.20
49124;DHT22;48506;48.202;16.274;2023-04-01T04:21:49;11.00;90.20
49124;DHT22;48506;48.202;16.274;2023-04-01T04:24:15;11.00;90.20
49124;DHT22;48506;48.202;16.274;2023-04-01T04:26:41;11.00;90.10
49124;DHT22;48506;48.202;16.274;2023-04-01T04:29:07;11.00;90.20
49124;DHT22;48506;48.202;16.274;2023-04-01T04:31:33;11.00;90.10
49124;DHT22;48506;48.202;16.274;2023-04-01T04:34:00;11.00;90.10
49124;DHT22;48506;48.202;16.274;2023-04-01T04:36:26;11.00;90.30
49124;DHT22;48506;48.202;16.274;2023-04-01T04:38:52;11.00;90.10
49124;DHT22;48506;48.202;16.274;2023-04-01T04:41:19;11.00;90.00
49124;DHT22;48506;48.202;16.274;2023-04-01T04:43:54;11.00;90.00
49124;DHT22;48506;48.202;16.274;2023-04-01T04:46:21;11.10;90.00
49124;DHT22;48506;48.202;16.274;2023-04-01T04:48:47;11.00;90.00
49124;DHT22;48506;48.202;16.274;2023-04-01T04:51:15;11.00;90.10
49124;DHT22;48506;48.202;16.274;2023-04-01T04:53:41;11.10;90.00
49124;DHT22;48506;48.202;16.274;2023-04-01T04:56:07;11.00;90.00
49124;DHT22;48506;48.202;16.274;2023-04-01T04:58:33;11.00;90.10
49124;DHT22;48506;48.202;16.274;2023-04-01T05:01:05;11.00;90.00
49124;DHT22;48506;48.202;16.274;2023-04-01T05:03:31;11.10;90.00
49124;DHT22;48506;48.202;16.274;2023-04-01T05:05:57;11.00;90.10
49124;DHT22;48506;48.202;16.274;2023-04-01T05:08:23;11.00;90.10
49124;DHT22;48506;48.202;16.274;2023-04-01T05:10:48;11.00;90.10
49124;DHT22;48506;48.202;16.274;2023-04-01T05:13:14;11.10;90.10
49124;DHT22;48506;48.202;16.274;2023-04-01T05:15:41;11.10;90.20
49124;DHT22;48506;48.202;16.274;2023-04-01T05:18:07;11.10;90.20
49124;DHT22;48506;48.202;16.274;2023-04-01T05:20:32;11.10;90.20
49124;DHT22;48506;48.202;16.274;2023-04-01T05:22:59;11.10;90.20
49124;DHT22;48506;48.202;16.274;2023-04-01T05:25:26;11.10;90.20
49124;DHT22;48506;48.202;16.274;2023-04-01T05:27:52;11.10;90.30
49124;DHT22;48506;48.202;16.274;2023-04-01T05:30:19;11.20;90.30
49124;DHT22;48506;48.202;16.274;2023-04-01T05:32:45;11.20;90.40
49124;DHT22;48506;48.202;16.274;2023-04-01T05:35:11;11.20;90.30
49124;DHT22;48506;48.202;16.274;2023-04-01T05:37:37;11.30;90.40
49124;DHT22;48506;48.202;16.274;2023-04-01T05:40:03;11.30;90.30
49124;DHT22;48506;48.202;16.274;2023-04-01T05:42:30;11.40;90.30
49124;DHT22;48506;48.202;16.274;2023-04-01T05:44:55;11.30;90.40
49124;DHT22;48506;48.202;16.274;2023-04-01T05:47:22;11.40;90.50
49124;DHT22;48506;48.202;16.274;2023-04-01T05:49:48;11.50;90.20
49124;DHT22;48506;48.202;16.274;2023-04-01T05:52:14;11.60;90.30
49124;DHT22;48506;48.202;16.274;2023-04-01T05:54:40;11.70;90.20
49124;DHT22;48506;48.202;16.274;2023-04-01T05:57:06;11.80;90.20
49124;DHT22;48506;48.202;16.274;2023-04-01T05:59:32;11.90;90.00
49124;DHT22;48506;48.202;16.274;2023-04-01T06:01:58;12.00;89.50
49124;DHT22;48506;48.202;16.274;2023-04-01T06:04:24;12.10;89.10
49124;DHT22;48506;48.202;16.274;2023-04-01T06:06:52;12.20;88.70
49124;DHT22;48506;48.202;16.274;2023-04-01T06:09:18;12.20;88.60
49124;DHT22;48506;48.202;16.274;2023-04-01T06:11:55;12.40;88.40
49124;DHT22;48506;48.202;16.274;2023-04-01T06:20:26;12.50;87.80
49124;DHT22;48506;48.202;16.274;2023-04-01T06:26:11;12.50;89.10
49124;DHT22;48506;48.202;16.274;2023-04-01T06:43:53;12.80;87.90
49124;DHT22;48506;48.202;16.274;2023-04-01T06:46:19;12.80;87.80
49124;DHT22;48506;48.202;16.274;2023-04-01T06:51:42;12.90;87.60
49124;DHT22;48506;48.202;16.274;2023-04-01T06:54:20;12.90;87.00
49124;DHT22;48506;48.202;16.274;2023-04-01T06:56:53;12.90;87.30
49124;DHT22;48506;48.202;16.274;2023-04-01T06:59:27;12.90;87.30
49124;DHT22;48506;48.202;16.274;2023-04-01T07:02:01;13.00;87.20
49124;DHT22;48506;48.202;16.274;2023-04-01T07:04:33;13.10;86.80
49124;DHT22;48506;48.202;16.274;2023-04-01T07:07:24;13.20;86.20
49124;DHT22;48506;48.202;16.274;2023-04-01T07:09:55;13.30;86.30
49124;DHT22;48506;48.202;16.274;2023-04-01T07:14:59;13.60;84.70
49124;DHT22;48506;48.202;16.274;2023-04-01T07:17:35;13.70;86.00
49124;DHT22;48506;48.202;16.274;2023-04-01T07:25:11;13.90;83.40
49124;DHT22;48506;48.202;16.274;2023-04-01T07:27:37;13.90;83.70
49124;DHT22;48506;48.202;16.274;2023-04-01T07:30:13;13.80;84.20
49124;DHT22;48506;48.202;16.274;2023-04-01T07:32:41;13.90;83.10
49124;DHT22;48506;48.202;16.274;2023-04-01T07:51:19;14.30;82.90
49124;DHT22;48506;48.202;16.274;2023-04-01T08:07:45;15.00;80.10
49124;DHT22;48506;48.202;16.274;2023-04-01T08:13:40;15.40;80.30
49124;DHT22;48506;48.202;16.274;2023-04-01T08:17:05;15.30;78.70
49124;DHT22;48506;48.202;16.274;2023-04-01T08:22:40;15.20;79.80
49124;DHT22;48506;48.202;16.274;2023-04-01T08:25:13;15.10;78.60
49124;DHT22;48506;48.202;16.274;2023-04-01T08:27:46;14.80;80.90
49124;DHT22;48506;48.202;16.274;2023-04-01T08:30:24;14.90;79.60
49124;DHT22;48506;48.202;16.274;2023-04-01T08:33:13;15.00;79.50
49124;DHT22;48506;48.202;16.274;2023-04-01T08:35:57;15.10;79.10
49124;DHT22;48506;48.202;16.274;2023-04-01T08:44:16;15.00;79.30
49124;DHT22;48506;48.202;16.274;2023-04-01T09:06:58;15.00;78.70
49124;DHT22;48506;48.202;16.274;2023-04-01T09:09:52;15.30;78.10
49124;DHT22;48506;48.202;16.274;2023-04-01T09:23:33;15.70;74.40
49124;DHT22;48506;48.202;16.274;2023-04-01T09:26:24;15.70;74.10
49124;DHT22;48506;48.202;16.274;2023-04-01T09:29:13;15.50;75.60
49124;DHT22;48506;48.202;16.274;2023-04-01T09:34:52;15.10;75.70
49124;DHT22;48506;48.202;16.274;2023-04-01T09:48:59;15.70;74.20
49124;DHT22;48506;48.202;16.274;2023-04-01T09:57:02;15.40;75.40
49124;DHT22;48506;48.202;16.274;2023-04-01T10:05:10;15.60;75.00
49124;DHT22;48506;48.202;16.274;2023-04-01T10:10:48;16.60;73.10
49124;DHT22;48506;48.202;16.274;2023-04-01T10:16:25;17.00;71.20
49124;DHT22;48506;48.202;16.274;2023-04-01T10:21:50;16.20;70.50
49124;DHT22;48506;48.202;16.274;2023-04-01T10:49:56;15.70;72.40
49124;DHT22;48506;48.202;16.274;2023-04-01T11:05:28;15.80;71.60
49124;DHT22;48506;48.202;16.274;2023-04-01T11:44:01;16.60;67.90
49124;DHT22;48506;48.202;16.274;2023-04-01T11:46:46;16.50;68.90
49124;DHT22;48506;48.202;16.274;2023-04-01T11:52:46;16.40;68.30
49124;DHT22;48506;48.202;16.274;2023-04-01T12:16:19;17.60;66.10
49124;DHT22;48506;48.202;16.274;2023-04-01T12:19:08;17.40;65.40
49124;DHT22;48506;48.202;16.274;2023-04-01T12:24:51;17.30;65.20
49124;DHT22;48506;48.202;16.274;2023-04-01T12:27:59;17.10;67.00
49124;DHT22;48506;48.202;16.274;2023-04-01T12:35:37;16.90;66.90
49124;DHT22;48506;48.202;16.274;2023-04-01T12:38:30;16.90;66.00
49124;DHT22;48506;48.202;16.274;2023-04-01T12:41:27;16.70;66.30
49124;DHT22;48506;48.202;16.274;2023-04-01T12:50:19;16.80;66.80
49124;DHT22;48506;48.202;16.274;2023-04-01T12:53:06;17.10;67.30
49124;DHT22;48506;48.202;16.274;2023-04-01T12:55:42;17.30;66.30
49124;DHT22;48506;48.202;16.274;2023-04-01T13:01:19;18.50;67.20
49124;DHT22;48506;48.202;16.274;2023-04-01T13:10:05;19.10;61.40
49124;DHT22;48506;48.202;16.274;2023-04-01T13:13:02;19.00;62.30
49124;DHT22;48506;48.202;16.274;2023-04-01T13:29:43;18.80;61.40
49124;DHT22;48506;48.202;16.274;2023-04-01T13:32:33;18.60;63.20
49124;DHT22;48506;48.202;16.274;2023-04-01T13:35:36;18.50;61.90
49124;DHT22;48506;48.202;16.274;2023-04-01T13:44:22;19.40;60.20
49124;DHT22;48506;48.202;16.274;2023-04-01T13:58:50;20.10;57.30
49124;DHT22;48506;48.202;16.274;2023-04-01T14:07:12;18.70;59.70
49124;DHT22;48506;48.202;16.274;2023-04-01T14:12:40;18.20;60.30
49124;DHT22;48506;48.202;16.274;2023-04-01T14:15:23;18.00;60.40
49124;DHT22;48506;48.202;16.274;2023-04-01T14:21:07;19.00;61.40
49124;DHT22;48506;48.202;16.274;2023-04-01T14:32:02;19.90;56.70
49124;DHT22;48506;48.202;16.274;2023-04-01T14:40:19;19.40;55.20
49124;DHT22;48506;48.202;16.274;2023-04-01T14:51:20;20.40;54.60
49124;DHT22;48506;48.202;16.274;2023-04-01T14:56:44;20.10;54.40
49124;DHT22;48506;48.202;16.274;2023-04-01T15:02:01;19.90;54.70
49124;DHT22;48506;48.202;16.274;2023-04-01T15:04:41;19.80;54.30
49124;DHT22;48506;48.202;16.274;2023-04-01T15:07:27;19.50;53.70
49124;DHT22;48506;48.202;16.274;2023-04-01T15:13:15;19.70;55.30
49124;DHT22;48506;48.202;16.274;2023-04-01T15:18:46;19.80;55.30
49124;DHT22;48506;48.202;16.274;2023-04-01T15:32:17;18.70;59.00
49124;DHT22;48506;48.202;16.274;2023-04-01T15:53:54;17.70;62.30
49124;DHT22;48506;48.202;16.274;2023-04-01T16:21:36;17.10;64.60
49124;DHT22;48506;48.202;16.274;2023-04-01T16:24:15;16.80;65.80
49124;DHT22;48506;48.202;16.274;2023-04-01T16:37:36;16.00;68.60
49124;DHT22;48506;48.202;16.274;2023-04-01T16:43:37;15.70;69.70
49124;DHT22;48506;48.202;16.274;2023-04-01T16:47:10;15.60;70.30
49124;DHT22;48506;48.202;16.274;2023-04-01T16:49:53;15.50;71.90
49124;DHT22;48506;48.202;16.274;2023-04-01T16:55:35;15.00;72.50
49124;DHT22;48506;48.202;16.274;2023-04-01T16:58:10;14.90;72.20
49124;DHT22;48506;48.202;16.274;2023-04-01T17:00:51;14.60;72.60
49124;DHT22;48506;48.202;16.274;2023-04-01T17:03:26;14.40;73.40
49124;DHT22;48506;48.202;16.274;2023-04-01T17:06:02;14.30;74.20
49124;DHT22;48506;48.202;16.274;2023-04-01T17:11:21;14.00;75.60
49124;DHT22;48506;48.202;16.274;2023-04-01T17:14:01;13.90;76.20
49124;DHT22;48506;48.202;16.274;2023-04-01T17:19:42;13.80;77.90
49124;DHT22;48506;48.202;16.274;2023-04-01T17:22:21;13.80;78.40
49124;DHT22;48506;48.202;16.274;2023-04-01T17:30:10;13.40;80.10
49124;DHT22;48506;48.202;16.274;2023-04-01T17:33:22;13.40;80.70
49124;DHT22;48506;48.202;16.274;2023-04-01T17:49:02;12.90;82.70
49124;DHT22;48506;48.202;16.274;2023-04-01T17:51:46;12.90;83.10
49124;DHT22;48506;48.202;16.274;2023-04-01T17:54:21;12.80;83.30
49124;DHT22;48506;48.202;16.274;2023-04-01T18:07:55;12.60;84.80
49124;DHT22;48506;48.202;16.274;2023-04-01T18:13:05;12.50;85.40
49124;DHT22;48506;48.202;16.274;2023-04-01T18:23:56;12.30;85.80
49124;DHT22;48506;48.202;16.274;2023-04-01T18:26:35;12.30;86.00
49124;DHT22;48506;48.202;16.274;2023-04-01T18:31:47;12.30;86.20
49124;DHT22;48506;48.202;16.274;2023-04-01T18:37:12;12.20;86.70
49124;DHT22;48506;48.202;16.274;2023-04-01T18:39:48;12.20;86.60
49124;DHT22;48506;48.202;16.274;2023-04-01T18:42:46;12.20;86.70
49124;DHT22;48506;48.202;16.274;2023-04-01T18:54:05;12.00;88.00
49124;DHT22;48506;48.202;16.274;2023-04-01T18:56:41;12.00;88.50
49124;DHT22;48506;48.202;16.274;2023-04-01T18:59:28;12.00;88.60
49124;DHT22;48506;48.202;16.274;2023-04-01T19:05:11;12.00;88.70
49124;DHT22;48506;48.202;16.274;2023-04-01T19:07:50;11.90;89.30
49124;DHT22;48506;48.202;16.274;2023-04-01T19:21:54;11.80;90.10
49124;DHT22;48506;48.202;16.274;2023-04-01T19:27:23;11.70;90.10
49124;DHT22;48506;48.202;16.274;2023-04-01T19:36:09;11.60;90.40
49124;DHT22;48506;48.202;16.274;2023-04-01T19:38:52;11.50;90.30
49124;DHT22;48506;48.202;16.274;2023-04-01T19:41:32;11.50;90.40
49124;DHT22;48506;48.202;16.274;2023-04-01T19:46:51;11.40;90.50
49124;DHT22;48506;48.202;16.274;2023-04-01T20:00:40;11.40;90.70
49124;DHT22;48506;48.202;16.274;2023-04-01T20:14:46;11.30;91.00
49124;DHT22;48506;48.202;16.274;2023-04-01T20:17:26;11.30;91.10
49124;DHT22;48506;48.202;16.274;2023-04-01T20:39:04;11.30;91.30
49124;DHT22;48506;48.202;16.274;2023-04-01T20:41:58;11.30;91.40
49124;DHT22;48506;48.202;16.274;2023-04-01T20:44:56;11.30;91.40
49124;DHT22;48506;48.202;16.274;2023-04-01T20:47:58;11.30;91.40
49124;DHT22;48506;48.202;16.274;2023-04-01T20:50:41;11.30;91.40
49124;DHT22;48506;48.202;16.274;2023-04-01T20:53:20;11.30;91.80
49124;DHT22;48506;48.202;16.274;2023-04-01T21:01:06;11.30;91.60
49124;DHT22;48506;48.202;16.274;2023-04-01T21:03:56;11.30;91.70
49124;DHT22;48506;48.202;16.274;2023-04-01T21:09:28;11.30;91.90
49124;DHT22;48506;48.202;16.274;2023-04-01T21:12:18;11.30;92.00
49124;DHT22;48506;48.202;16.274;2023-04-01T21:21:10;11.30;92.10
49124;DHT22;48506;48.202;16.274;2023-04-01T21:26:24;11.20;92.00
49124;DHT22;48506;48.202;16.274;2023-04-01T21:41:14;11.20;92.60
49124;DHT22;48506;48.202;16.274;2023-04-01T21:43:39;11.20;92.80
49124;DHT22;48506;48.202;16.274;2023-04-01T21:52:06;11.20;93.30
49124;DHT22;48506;48.202;16.274;2023-04-01T22:00:21;11.10;93.80
49124;DHT22;48506;48.202;16.274;2023-04-01T22:14:29;11.00;94.20
49124;DHT22;48506;48.202;16.274;2023-04-01T22:17:05;11.00;94.20
49124;DHT22;48506;48.202;16.274;2023-04-01T22:19:56;11.00;94.40
49124;DHT22;48506;48.202;16.274;2023-04-01T22:28:58;11.00;94.30
49124;DHT22;48506;48.202;16.274;2023-04-01T22:31:44;11.00;94.40
49124;DHT22;48506;48.202;16.274;2023-04-01T22:39:51;11.10;94.10
49124;DHT22;48506;48.202;16.274;2023-04-01T22:42:43;11.10;93.90
49124;DHT22;48506;48.202;16.274;2023-04-01T22:47:40;11.10;93.80
49124;DHT22;48506;48.202;16.274;2023-04-01T22:50:28;11.20;93.70
49124;DHT22;48506;48.202;16.274;2023-04-01T22:53:38;11.20;93.90
49124;DHT22;48506;48.202;16.274;2023-04-01T22:56:13;11.20;93.90
49124;DHT22;48506;48.202;16.274;2023-04-01T22:58:56;11.20;93.90
49124;DHT22;48506;48.202;16.274;2023-04-01T23:01:30;11.20;94.00
49124;DHT22;48506;48.202;16.274;2023-04-01T23:03:59;11.20;93.80
49124;DHT22;48506;48.202;16.274;2023-04-01T23:06:36;11.20;93.80
49124;DHT22;48506;48.202;16.274;2023-04-01T23:09:27;11.20;93.70
49124;DHT22;48506;48.202;16.274;2023-04-01T23:12:04;11.20;93.50
49124;DHT22;48506;48.202;16.274;2023-04-01T23:20:28;11.20;93.70
49124;DHT22;48506;48.202;16.274;2023-04-01T23:26:29;11.20;93.60
49124;DHT22;48506;48.202;16.274;2023-04-01T23:28:43;11.20;93.50
49124;DHT22;48506;48.202;16.274;2023-04-01T23:34:03;11.20;93.30
49124;DHT22;48506;48.202;16.274;2023-04-01T23:36:35;11.20;93.50
49124;DHT22;48506;48.202;16.274;2023-04-01T23:39:10;11.20;93.00
49124;DHT22;48506;48.202;16.274;2023-04-01T23:41:40;11.20;93.10
49124;DHT22;48506;48.202;16.274;2023-04-01T23:44:11;11.20;93.10
49124;DHT22;48506;48.202;16.274;2023-04-01T23:46:40;11.30;93.00
49124;DHT22;48506;48.202;16.274;2023-04-01T23:49:11;11.30;92.80
49124;DHT22;48506;48.202;16.274;2023-04-01T23:51:49;11.30;93.00
49124;DHT22;48506;48.202;16.274;2023-04-01T23:54:33;11.30;93.00
49124;DHT22;48506;48.202;16.274;2023-04-01T23:57:05;11.30;92.90
49124;DHT22;48506;48.202;16.274;2023-04-01T23:59:36;11.30;92.80
